sensor_id;sensor_type;location;lat;lon;timestamp;pressure;altitude;pressure_sealevel;temperature;humidity
61394;BME280;48555;50.952;-0.120;2023-11-21T00:01:10;100876.16;;;12.49;88.32
61394;BME280;48555;50.952;-0.120;2023-11-21T00:03:35;100889.16;;;12.39;88.26
61394;BME280;48555;50.952;-0.120;2023-11-21T00:06:01;100881.63;;;12.35;89.08
61394;BME280;48555;50.952;-0.120;2023-11-21T00:08:28;100882.25;;;12.38;89.11
61394;BME280;48555;50.952;-0.120;2023-11-21T00:10:53;100883.78;;;12.41;88.71
61394;BME280;48555;50.952;-0.120;2023-11-21T00:13:20;100884.28;;;12.46;88.25
61394;BME280;48555;50.952;-0.120;2023-11-21T00:15:45;100883.44;;;12.34;89.19
61394;BME280;48555;50.952;-0.120;2023-11-21T00:18:10;100889.50;;;12.35;88.81
61394;BME280;48555;50.952;-0.120;2023-11-21T00:20:36;100880.94;;;12.33;88.58
61394;BME280;48555;50.952;-0.120;2023-11-21T00:23:01;100889.47;;;12.23;89.09
61394;BME280;48555;50.952;-0.120;2023-11-21T00:25:27;100880.69;;;12.24;89.09
61394;BME280;48555;50.952;-0.120;2023-11-21T00:27:52;100878.63;;;12.17;89.60
61394;BME280;48555;50.952;-0.120;2023-11-21T00:30:19;100889.34;;;12.14;89.53
61394;BME280;48555;50.952;-0.120;2023-11-21T00:32:46;100896.38;;;12.13;89.66
61394;BME280;48555;50.952;-0.120;2023-11-21T00:35:11;100887.56;;;12.03;90.39
61394;BME280;48555;50.952;-0.120;2023-11-21T00:37:36;100894.47;;;12.04;90.38
61394;BME280;48555;50.952;-0.120;2023-11-21T00:40:04;100876.59;;;11.98;90.05
61394;BME280;48555;50.952;-0.120;2023-11-21T00:42:30;100889.72;;;12.09;90.01
61394;BME280;48555;50.952;-0.120;2023-11-21T00:44:59;100896.84;;;12.07;90.28
61394;BME280;48555;50.952;-0.120;2023-11-21T00:47:24;100894.09;;;12.09;90.14
61394;BME280;48555;50.952;-0.120;2023-11-21T00:49:50;100907.84;;;12.12;90.00
61394;BME280;48555;50.952;-0.120;2023-11-21T00:52:15;100906.16;;;12.11;89.99
61394;BME280;48555;50.952;-0.120;2023-11-21T00:54:41;100912.84;;;12.15;89.84
61394;BME280;48555;50.952;-0.120;2023-11-21T00:57:07;100916.16;;;12.17;90.12
61394;BME280;48555;50.952;-0.120;2023-11-21T00:59:33;100921.91;;;12.22;89.96
61394;BME280;48555;50.952;-0.120;2023-11-21T01:01:59;100924.06;;;12.28;89.90
61394;BME280;48555;50.952;-0.120;2023-11-21T01:04:26;100929.91;;;12.32;89.92
61394;BME280;48555;50.952;-0.120;2023-11-21T01:06:52;100931.22;;;12.38;89.95
61394;BME280;48555;50.952;-0.120;2023-11-21T01:09:17;100935.63;;;12.37;90.27
61394;BME280;48555;50.952;-0.120;2023-11-21T01:11:43;100940.88;;;12.37;90.31
61394;BME280;48555;50.952;-0.120;2023-11-21T01:14:09;100931.94;;;12.40;90.36
61394;BME280;48555;50.952;-0.120;2023-11-21T01:16:35;100935.31;;;12.42;90.28
61394;BME280;48555;50.952;-0.120;2023-11-21T01:19:01;100939.47;;;12.44;90.43
61394;BME280;48555;50.952;-0.120;2023-11-21T01:21:27;100940.91;;;12.48;90.34
61394;BME280;48555;50.952;-0.120;2023-11-21T01:23:53;100937.56;;;12.46;90.47
61394;BME280;48555;50.952;-0.120;2023-11-21T01:26:20;100946.16;;;12.48;90.54
61394;BME280;48555;50.952;-0.120;2023-11-21T01:28:45;100953.44;;;12.45;90.70
61394;BME280;48555;50.952;-0.120;2023-11-21T01:31:14;100960.22;;;12.47;90.68
61394;BME280;48555;50.952;-0.120;2023-11-21T01:33:39;100960.34;;;12.46;90.96
61394;BME280;48555;50.952;-0.120;2023-11-21T01:36:05;100955.09;;;12.46;90.81
61394;BME280;48555;50.952;-0.120;2023-11-21T01:38:30;100946.16;;;12.48;91.08
61394;BME280;48555;50.952;-0.120;2023-11-21T01:40:57;100950.19;;;12.53;91.08
61394;BME280;48555;50.952;-0.120;2023-11-21T01:43:22;100952.00;;;12.52;91.04
61394;BME280;48555;50.952;-0.120;2023-11-21T01:45:48;100955.56;;;12.51;91.22
61394;BME280;48555;50.952;-0.120;2023-11-21T01:48:14;100963.91;;;12.45;91.76
61394;BME280;48555;50.952;-0.120;2023-11-21T01:50:42;100962.72;;;12.49;91.81
61394;BME280;48555;50.952;-0.120;2023-11-21T01:53:07;100960.09;;;12.49;91.95
61394;BME280;48555;50.952;-0.120;2023-11-21T01:55:33;100971.56;;;12.48;92.27
61394;BME280;48555;50.952;-0.120;2023-11-21T01:57:59;100979.28;;;12.49;92.48
61394;BME280;48555;50.952;-0.120;2023-11-21T02:00:25;100976.78;;;12.48;92.61
61394;BME280;48555;50.952;-0.120;2023-11-21T02:02:53;100987.38;;;12.46;93.27
61394;BME280;48555;50.952;-0.120;2023-11-21T02:05:19;100996.31;;;12.44;93.63
61394;BME280;48555;50.952;-0.120;2023-11-21T02:07:45;100989.66;;;12.40;94.19
61394;BME280;48555;50.952;-0.120;2023-11-21T02:10:15;100997.72;;;12.25;95.13
61394;BME280;48555;50.952;-0.120;2023-11-21T02:12:42;100998.34;;;12.40;94.48
61394;BME280;48555;50.952;-0.120;2023-11-21T02:15:08;100997.47;;;12.28;95.04
61394;BME280;48555;50.952;-0.120;2023-11-21T02:17:41;100983.91;;;12.35;95.12
61394;BME280;48555;50.952;-0.120;2023-11-21T02:20:11;100991.44;;;12.39;95.07
61394;BME280;48555;50.952;-0.120;2023-11-21T02:22:41;100994.91;;;12.40;94.99
61394;BME280;48555;50.952;-0.120;2023-11-21T02:25:07;101003.00;;;12.37;95.34
61394;BME280;48555;50.952;-0.120;2023-11-21T02:27:33;101011.81;;;12.47;94.83
61394;BME280;48555;50.952;-0.120;2023-11-21T02:29:58;101011.00;;;12.46;94.98
61394;BME280;48555;50.952;-0.120;2023-11-21T02:32:25;101010.06;;;12.47;94.35
61394;BME280;48555;50.952;-0.120;2023-11-21T02:34:51;101019.38;;;12.52;94.48
61394;BME280;48555;50.952;-0.120;2023-11-21T02:37:16;101021.41;;;12.59;94.28
61394;BME280;48555;50.952;-0.120;2023-11-21T02:39:42;101016.63;;;12.64;93.82
61394;BME280;48555;50.952;-0.120;2023-11-21T02:42:07;101017.09;;;12.58;93.49
61394;BME280;48555;50.952;-0.120;2023-11-21T02:44:33;101021.53;;;12.58;93.68
61394;BME280;48555;50.952;-0.120;2023-11-21T02:46:58;101008.41;;;12.58;93.50
61394;BME280;48555;50.952;-0.120;2023-11-21T02:49:23;101013.41;;;12.61;93.40
61394;BME280;48555;50.952;-0.120;2023-11-21T02:51:49;101003.75;;;12.61;93.40
61394;BME280;48555;50.952;-0.120;2023-11-21T02:54:14;101013.31;;;12.62;93.22
61394;BME280;48555;50.952;-0.120;2023-11-21T02:56:40;101020.56;;;12.47;93.62
61394;BME280;48555;50.952;-0.120;2023-11-21T02:59:05;101034.13;;;12.53;93.27
61394;BME280;48555;50.952;-0.120;2023-11-21T03:01:30;101027.78;;;12.44;93.74
61394;BME280;48555;50.952;-0.120;2023-11-21T03:03:56;101034.00;;;12.43;93.38
61394;BME280;48555;50.952;-0.120;2023-11-21T03:06:22;101034.56;;;12.35;93.56
61394;BME280;48555;50.952;-0.120;2023-11-21T03:08:48;101038.38;;;12.31;94.14
61394;BME280;48555;50.952;-0.120;2023-11-21T03:11:14;101048.81;;;12.20;94.98
61394;BME280;48555;50.952;-0.120;2023-11-21T03:13:40;101053.16;;;12.32;94.05
61394;BME280;48555;50.952;-0.120;2023-11-21T03:16:12;101053.03;;;12.34;94.11
61394;BME280;48555;50.952;-0.120;2023-11-21T03:18:38;101045.78;;;12.37;94.14
61394;BME280;48555;50.952;-0.120;2023-11-21T03:21:08;101056.28;;;12.37;94.34
61394;BME280;48555;50.952;-0.120;2023-11-21T03:23:34;101058.06;;;12.37;94.59
61394;BME280;48555;50.952;-0.120;2023-11-21T03:26:00;101055.53;;;12.35;94.82
61394;BME280;48555;50.952;-0.120;2023-11-21T03:28:26;101058.91;;;12.37;94.95
61394;BME280;48555;50.952;-0.120;2023-11-21T03:30:53;101057.09;;;12.38;94.90
61394;BME280;48555;50.952;-0.120;2023-11-21T03:33:19;101061.47;;;12.26;95.50
61394;BME280;48555;50.952;-0.120;2023-11-21T03:35:44;101070.34;;;12.36;95.43
61394;BME280;48555;50.952;-0.120;2023-11-21T03:38:09;101076.09;;;12.41;95.32
61394;BME280;48555;50.952;-0.120;2023-11-21T03:40:35;101077.97;;;12.39;95.83
61394;BME280;48555;50.952;-0.120;2023-11-21T03:43:00;101085.25;;;12.47;95.67
61394;BME280;48555;50.952;-0.120;2023-11-21T03:45:26;101076.19;;;12.40;96.17
61394;BME280;48555;50.952;-0.120;2023-11-21T03:47:51;101085.78;;;12.52;96.12
61394;BME280;48555;50.952;-0.120;2023-11-21T03:50:16;101085.25;;;12.47;96.37
61394;BME280;48555;50.952;-0.120;2023-11-21T03:52:42;101082.91;;;12.55;96.06
61394;BME280;48555;50.952;-0.120;2023-11-21T03:55:08;101087.69;;;12.50;96.31
61394;BME280;48555;50.952;-0.120;2023-11-21T03:57:33;101081.28;;;12.30;97.40
61394;BME280;48555;50.952;-0.120;2023-11-21T03:59:58;101089.97;;;12.31;98.71
61394;BME280;48555;50.952;-0.120;2023-11-21T04:02:24;101085.47;;;12.33;98.26
61394;BME280;48555;50.952;-0.120;2023-11-21T04:04:51;101100.16;;;12.46;97.45
61394;BME280;48555;50.952;-0.120;2023-11-21T04:07:16;101099.78;;;12.40;97.98
61394;BME280;48555;50.952;-0.120;2023-11-21T04:09:42;101098.22;;;12.37;98.27
61394;BME280;48555;50.952;-0.120;2023-11-21T04:12:08;101113.06;;;12.25;98.33
61394;BME280;48555;50.952;-0.120;2023-11-21T04:14:36;101111.41;;;12.00;99.71
61394;BME280;48555;50.952;-0.120;2023-11-21T04:17:01;101108.28;;;11.95;100.00
61394;BME280;48555;50.952;-0.120;2023-11-21T04:19:29;101118.81;;;11.57;100.00
61394;BME280;48555;50.952;-0.120;2023-11-21T04:21:54;101120.69;;;11.68;100.00
61394;BME280;48555;50.952;-0.120;2023-11-21T04:24:20;101127.47;;;11.70;100.00
61394;BME280;48555;50.952;-0.120;2023-11-21T04:26:45;101132.75;;;11.45;100.00
61394;BME280;48555;50.952;-0.120;2023-11-21T04:29:11;101129.16;;;11.58;100.00
61394;BME280;48555;50.952;-0.120;2023-11-21T04:31:36;101134.63;;;11.68;100.00
61394;BME280;48555;50.952;-0.120;2023-11-21T04:34:02;101138.16;;;11.80;100.00
61394;BME280;48555;50.952;-0.120;2023-11-21T04:36:29;101139.59;;;11.97;98.93
61394;BME280;48555;50.952;-0.120;2023-11-21T04:38:56;101130.38;;;12.04;98.36
61394;BME280;48555;50.952;-0.120;2023-11-21T04:41:21;101136.06;;;11.98;98.64
61394;BME280;48555;50.952;-0.120;2023-11-21T04:43:47;101140.91;;;11.91;99.26
61394;BME280;48555;50.952;-0.120;2023-11-21T04:46:12;101153.25;;;11.89;98.94
61394;BME280;48555;50.952;-0.120;2023-11-21T04:48:38;101153.56;;;11.97;98.46
61394;BME280;48555;50.952;-0.120;2023-11-21T04:51:03;101159.63;;;11.98;97.95
61394;BME280;48555;50.952;-0.120;2023-11-21T04:53:29;101158.47;;;12.02;97.61
61394;BME280;48555;50.952;-0.120;2023-11-21T04:55:55;101168.50;;;12.08;97.03
61394;BME280;48555;50.952;-0.120;2023-11-21T04:58:20;101170.63;;;12.03;96.76
61394;BME280;48555;50.952;-0.120;2023-11-21T05:00:46;101188.03;;;12.04;96.71
61394;BME280;48555;50.952;-0.120;2023-11-21T05:03:11;101186.72;;;12.22;95.41
61394;BME280;48555;50.952;-0.120;2023-11-21T05:05:37;101195.84;;;12.17;95.35
61394;BME280;48555;50.952;-0.120;2023-11-21T05:08:03;101211.88;;;12.25;94.88
61394;BME280;48555;50.952;-0.120;2023-11-21T05:10:29;101209.34;;;12.23;94.77
61394;BME280;48555;50.952;-0.120;2023-11-21T05:12:55;101217.34;;;12.22;94.63
61394;BME280;48555;50.952;-0.120;2023-11-21T05:15:20;101215.69;;;12.21;95.00
61394;BME280;48555;50.952;-0.120;2023-11-21T05:17:46;101215.16;;;12.16;95.73
61394;BME280;48555;50.952;-0.120;2023-11-21T05:20:15;101215.94;;;12.29;94.83
61394;BME280;48555;50.952;-0.120;2023-11-21T05:22:43;101220.88;;;12.34;94.63
61394;BME280;48555;50.952;-0.120;2023-11-21T05:25:08;101211.56;;;12.30;94.51
61394;BME280;48555;50.952;-0.120;2023-11-21T05:27:35;101200.78;;;12.09;95.29
61394;BME280;48555;50.952;-0.120;2023-11-21T05:30:05;101216.06;;;12.27;94.93
61394;BME280;48555;50.952;-0.120;2023-11-21T05:32:34;101219.75;;;12.25;95.32
61394;BME280;48555;50.952;-0.120;2023-11-21T05:34:59;101218.19;;;12.22;95.16
61394;BME280;48555;50.952;-0.120;2023-11-21T05:37:25;101219.66;;;12.14;95.54
61394;BME280;48555;50.952;-0.120;2023-11-21T05:39:52;101225.31;;;12.20;95.33
61394;BME280;48555;50.952;-0.120;2023-11-21T05:42:18;101221.38;;;12.02;95.91
61394;BME280;48555;50.952;-0.120;2023-11-21T05:44:43;101234.25;;;12.05;96.41
61394;BME280;48555;50.952;-0.120;2023-11-21T05:47:09;101231.06;;;12.25;95.29
61394;BME280;48555;50.952;-0.120;2023-11-21T05:49:35;101238.09;;;12.25;95.22
61394;BME280;48555;50.952;-0.120;2023-11-21T05:52:01;101232.28;;;11.83;97.21
61394;BME280;48555;50.952;-0.120;2023-11-21T05:54:26;101244.41;;;11.58;97.87
61394;BME280;48555;50.952;-0.120;2023-11-21T05:56:51;101233.00;;;11.59;98.68
61394;BME280;48555;50.952;-0.120;2023-11-21T05:59:17;101234.03;;;11.70;97.40
61394;BME280;48555;50.952;-0.120;2023-11-21T06:01:42;101236.97;;;11.52;97.78
61394;BME280;48555;50.952;-0.120;2023-11-21T06:04:08;101258.03;;;11.76;97.36
61394;BME280;48555;50.952;-0.120;2023-11-21T06:06:34;101244.84;;;11.91;96.26
61394;BME280;48555;50.952;-0.120;2023-11-21T06:09:00;101255.00;;;12.08;95.27
61394;BME280;48555;50.952;-0.120;2023-11-21T06:11:25;101268.94;;;12.21;94.03
61394;BME280;48555;50.952;-0.120;2023-11-21T06:13:50;101272.09;;;11.75;95.71
61394;BME280;48555;50.952;-0.120;2023-11-21T06:16:18;101279.13;;;11.88;95.83
61394;BME280;48555;50.952;-0.120;2023-11-21T06:18:45;101272.84;;;11.90;94.98
61394;BME280;48555;50.952;-0.120;2023-11-21T06:21:11;101272.94;;;11.63;96.40
61394;BME280;48555;50.952;-0.120;2023-11-21T06:23:36;101280.13;;;11.47;96.30
61394;BME280;48555;50.952;-0.120;2023-11-21T06:26:01;101281.00;;;11.07;98.23
61394;BME280;48555;50.952;-0.120;2023-11-21T06:28:27;101276.44;;;11.24;96.96
61394;BME280;48555;50.952;-0.120;2023-11-21T06:30:52;101279.13;;;11.22;97.17
61394;BME280;48555;50.952;-0.120;2023-11-21T06:33:18;101287.97;;;11.47;95.86
61394;BME280;48555;50.952;-0.120;2023-11-21T06:35:44;101290.56;;;11.21;95.69
61394;BME280;48555;50.952;-0.120;2023-11-21T06:38:10;101317.22;;;11.13;96.71
61394;BME280;48555;50.952;-0.120;2023-11-21T06:40:35;101313.28;;;10.94;97.43
61394;BME280;48555;50.952;-0.120;2023-11-21T06:43:00;101309.50;;;10.71;98.88
61394;BME280;48555;50.952;-0.120;2023-11-21T06:45:26;101326.31;;;10.81;99.26
61394;BME280;48555;50.952;-0.120;2023-11-21T06:47:51;101323.44;;;11.25;97.42
61394;BME280;48555;50.952;-0.120;2023-11-21T06:50:17;101316.56;;;10.97;99.47
61394;BME280;48555;50.952;-0.120;2023-11-21T06:52:42;101324.69;;;10.93;99.36
61394;BME280;48555;50.952;-0.120;2023-11-21T06:55:08;101335.31;;;11.04;98.15
61394;BME280;48555;50.952;-0.120;2023-11-21T06:57:35;101339.19;;;11.11;97.62
61394;BME280;48555;50.952;-0.120;2023-11-21T07:00:00;101353.13;;;11.39;95.98
61394;BME280;48555;50.952;-0.120;2023-11-21T07:02:26;101359.25;;;11.65;94.27
61394;BME280;48555;50.952;-0.120;2023-11-21T07:04:51;101356.88;;;11.74;93.27
61394;BME280;48555;50.952;-0.120;2023-11-21T07:07:18;101347.22;;;11.62;94.55
61394;BME280;48555;50.952;-0.120;2023-11-21T07:09:43;101368.06;;;11.64;94.83
61394;BME280;48555;50.952;-0.120;2023-11-21T07:12:09;101363.69;;;11.37;94.76
61394;BME280;48555;50.952;-0.120;2023-11-21T07:14:34;101367.06;;;11.12;95.75
61394;BME280;48555;50.952;-0.120;2023-11-21T07:17:00;101381.06;;;11.11;96.59
61394;BME280;48555;50.952;-0.120;2023-11-21T07:19:25;101378.97;;;11.03;96.39
61394;BME280;48555;50.952;-0.120;2023-11-21T07:21:51;101392.53;;;11.23;96.16
61394;BME280;48555;50.952;-0.120;2023-11-21T07:24:16;101402.13;;;11.09;96.48
61394;BME280;48555;50.952;-0.120;2023-11-21T07:26:42;101401.09;;;11.39;95.20
61394;BME280;48555;50.952;-0.120;2023-11-21T07:29:08;101416.31;;;11.47;94.56
61394;BME280;48555;50.952;-0.120;2023-11-21T07:31:33;101409.03;;;11.65;93.43
61394;BME280;48555;50.952;-0.120;2023-11-21T07:34:01;101420.31;;;11.52;94.43
61394;BME280;48555;50.952;-0.120;2023-11-21T07:36:27;101426.94;;;11.58;94.32
61394;BME280;48555;50.952;-0.120;2023-11-21T07:38:52;101431.88;;;11.63;93.83
61394;BME280;48555;50.952;-0.120;2023-11-21T07:41:18;101444.25;;;11.73;93.68
61394;BME280;48555;50.952;-0.120;2023-11-21T07:43:44;101444.59;;;11.69;93.49
61394;BME280;48555;50.952;-0.120;2023-11-21T07:46:11;101449.41;;;11.75;92.94
61394;BME280;48555;50.952;-0.120;2023-11-21T07:48:38;101450.47;;;11.45;94.03
61394;BME280;48555;50.952;-0.120;2023-11-21T07:51:03;101462.75;;;11.30;94.41
61394;BME280;48555;50.952;-0.120;2023-11-21T07:53:29;101461.94;;;11.16;94.54
61394;BME280;48555;50.952;-0.120;2023-11-21T07:56:13;101473.22;;;11.30;94.06
61394;BME280;48555;50.952;-0.120;2023-11-21T07:58:38;101467.56;;;11.51;92.59
61394;BME280;48555;50.952;-0.120;2023-11-21T08:01:04;101475.22;;;11.54;92.08
61394;BME280;48555;50.952;-0.120;2023-11-21T08:03:30;101475.88;;;11.57;91.17
61394;BME280;48555;50.952;-0.120;2023-11-21T08:05:59;101482.78;;;11.58;91.22
61394;BME280;48555;50.952;-0.120;2023-11-21T08:08:25;101475.69;;;11.46;91.10
61394;BME280;48555;50.952;-0.120;2023-11-21T08:10:51;101494.94;;;11.59;90.72
61394;BME280;48555;50.952;-0.120;2023-11-21T08:13:24;101492.06;;;11.50;90.55
61394;BME280;48555;50.952;-0.120;2023-11-21T08:15:49;101505.16;;;11.50;90.21
61394;BME280;48555;50.952;-0.120;2023-11-21T08:18:15;101503.44;;;11.36;90.72
61394;BME280;48555;50.952;-0.120;2023-11-21T08:20:42;101502.31;;;11.11;91.47
61394;BME280;48555;50.952;-0.120;2023-11-21T08:23:07;101515.97;;;11.31;90.77
61394;BME280;48555;50.952;-0.120;2023-11-21T08:25:33;101515.97;;;11.31;90.98
61394;BME280;48555;50.952;-0.120;2023-11-21T08:28:00;101531.84;;;11.28;90.64
61394;BME280;48555;50.952;-0.120;2023-11-21T08:30:25;101524.66;;;11.03;91.48
61394;BME280;48555;50.952;-0.120;2023-11-21T08:32:53;101530.09;;;11.00;91.23
61394;BME280;48555;50.952;-0.120;2023-11-21T08:35:18;101537.03;;;11.15;91.00
61394;BME280;48555;50.952;-0.120;2023-11-21T08:37:44;101533.38;;;11.03;90.75
61394;BME280;48555;50.952;-0.120;2023-11-21T08:40:09;101526.75;;;10.98;90.81
61394;BME280;48555;50.952;-0.120;2023-11-21T08:42:37;101527.75;;;10.95;91.46
61394;BME280;48555;50.952;-0.120;2023-11-21T08:45:03;101522.22;;;11.00;90.59
61394;BME280;48555;50.952;-0.120;2023-11-21T08:47:28;101530.47;;;10.94;90.63
61394;BME280;48555;50.952;-0.120;2023-11-21T08:49:54;101539.16;;;11.08;90.23
61394;BME280;48555;50.952;-0.120;2023-11-21T08:52:19;101547.09;;;11.07;90.50
61394;BME280;48555;50.952;-0.120;2023-11-21T08:54:49;101548.31;;;11.30;89.29
61394;BME280;48555;50.952;-0.120;2023-11-21T08:57:21;101549.63;;;10.80;89.89
61394;BME280;48555;50.952;-0.120;2023-11-21T08:59:47;101552.28;;;10.64;91.48
61394;BME280;48555;50.952;-0.120;2023-11-21T09:02:12;101565.03;;;10.84;91.12
61394;BME280;48555;50.952;-0.120;2023-11-21T09:04:37;101569.34;;;10.85;91.17
61394;BME280;48555;50.952;-0.120;2023-11-21T09:07:03;101564.44;;;10.79;90.90
61394;BME280;48555;50.952;-0.120;2023-11-21T09:09:28;101559.03;;;10.82;90.85
61394;BME280;48555;50.952;-0.120;2023-11-21T09:11:54;101569.31;;;10.71;91.40
61394;BME280;48555;50.952;-0.120;2023-11-21T09:14:20;101571.78;;;10.88;91.10
61394;BME280;48555;50.952;-0.120;2023-11-21T09:16:45;101571.50;;;11.22;89.70
61394;BME280;48555;50.952;-0.120;2023-11-21T09:19:11;101570.69;;;11.35;88.68
61394;BME280;48555;50.952;-0.120;2023-11-21T09:21:37;101587.13;;;11.09;89.91
61394;BME280;48555;50.952;-0.120;2023-11-21T09:24:02;101581.50;;;11.29;88.60
61394;BME280;48555;50.952;-0.120;2023-11-21T09:26:28;101590.47;;;11.11;90.04
61394;BME280;48555;50.952;-0.120;2023-11-21T09:28:55;101585.63;;;11.33;88.74
61394;BME280;48555;50.952;-0.120;2023-11-21T09:31:22;101591.97;;;11.44;88.28
61394;BME280;48555;50.952;-0.120;2023-11-21T09:33:47;101588.06;;;11.36;88.01
61394;BME280;48555;50.952;-0.120;2023-11-21T09:36:13;101599.56;;;11.34;88.32
61394;BME280;48555;50.952;-0.120;2023-11-21T09:38:39;101605.44;;;11.52;87.62
61394;BME280;48555;50.952;-0.120;2023-11-21T09:41:13;101606.19;;;11.40;88.42
61394;BME280;48555;50.952;-0.120;2023-11-21T09:43:44;101607.31;;;11.50;88.34
61394;BME280;48555;50.952;-0.120;2023-11-21T09:46:12;101608.16;;;11.50;88.17
61394;BME280;48555;50.952;-0.120;2023-11-21T09:48:42;101602.25;;;11.47;87.53
61394;BME280;48555;50.952;-0.120;2023-11-21T09:51:09;101608.63;;;11.43;87.89
61394;BME280;48555;50.952;-0.120;2023-11-21T09:53:36;101614.81;;;11.42;88.51
61394;BME280;48555;50.952;-0.120;2023-11-21T09:56:03;101635.56;;;11.45;88.61
61394;BME280;48555;50.952;-0.120;2023-11-21T09:58:29;101635.75;;;11.42;88.94
61394;BME280;48555;50.952;-0.120;2023-11-21T10:00:55;101641.16;;;11.53;88.39
61394;BME280;48555;50.952;-0.120;2023-11-21T10:03:22;101632.56;;;11.65;87.52
61394;BME280;48555;50.952;-0.120;2023-11-21T10:05:50;101639.88;;;11.46;88.55
61394;BME280;48555;50.952;-0.120;2023-11-21T10:08:15;101634.44;;;11.63;88.24
61394;BME280;48555;50.952;-0.120;2023-11-21T10:10:45;101636.88;;;11.66;88.03
61394;BME280;48555;50.952;-0.120;2023-11-21T10:13:12;101643.97;;;11.64;87.86
61394;BME280;48555;50.952;-0.120;2023-11-21T10:15:38;101651.38;;;11.43;89.27
61394;BME280;48555;50.952;-0.120;2023-11-21T10:18:07;101648.28;;;11.22;90.46
61394;BME280;48555;50.952;-0.120;2023-11-21T10:20:33;101656.78;;;11.26;90.94
61394;BME280;48555;50.952;-0.120;2023-11-21T10:22:59;101659.03;;;11.32;90.15
61394;BME280;48555;50.952;-0.120;2023-11-21T10:25:27;101659.97;;;11.45;90.55
61394;BME280;48555;50.952;-0.120;2023-11-21T10:27:57;101649.50;;;11.74;89.08
61394;BME280;48555;50.952;-0.120;2023-11-21T10:30:28;101664.28;;;11.75;88.29
61394;BME280;48555;50.952;-0.120;2023-11-21T10:32:59;101668.22;;;11.68;88.68
61394;BME280;48555;50.952;-0.120;2023-11-21T10:35:43;101660.72;;;11.76;87.30
61394;BME280;48555;50.952;-0.120;2023-11-21T10:38:14;101668.41;;;11.93;87.51
61394;BME280;48555;50.952;-0.120;2023-11-21T10:40:41;101666.00;;;12.17;86.49
61394;BME280;48555;50.952;-0.120;2023-11-21T10:43:11;101662.53;;;12.17;86.11
61394;BME280;48555;50.952;-0.120;2023-11-21T10:45:38;101669.38;;;12.19;85.75
61394;BME280;48555;50.952;-0.120;2023-11-21T10:48:12;101660.44;;;12.36;85.63
61394;BME280;48555;50.952;-0.120;2023-11-21T10:50:40;101662.34;;;12.47;85.12
61394;BME280;48555;50.952;-0.120;2023-11-21T10:53:05;101668.53;;;12.46;84.38
61394;BME280;48555;50.952;-0.120;2023-11-21T10:55:32;101668.69;;;12.57;84.22
61394;BME280;48555;50.952;-0.120;2023-11-21T10:58:02;101662.50;;;12.58;84.13
61394;BME280;48555;50.952;-0.120;2023-11-21T11:00:29;101660.63;;;12.60;84.10
61394;BME280;48555;50.952;-0.120;2023-11-21T11:02:55;101653.34;;;12.51;83.85
61394;BME280;48555;50.952;-0.120;2023-11-21T11:05:23;101647.50;;;12.60;83.96
61394;BME280;48555;50.952;-0.120;2023-11-21T11:07:58;101665.56;;;12.65;83.51
61394;BME280;48555;50.952;-0.120;2023-11-21T11:10:27;101659.88;;;12.58;83.37
61394;BME280;48555;50.952;-0.120;2023-11-21T11:12:55;101656.34;;;12.72;82.92
61394;BME280;48555;50.952;-0.120;2023-11-21T11:15:21;101655.72;;;12.81;82.94
61394;BME280;48555;50.952;-0.120;2023-11-21T11:17:48;101652.88;;;12.71;83.07
61394;BME280;48555;50.952;-0.120;2023-11-21T11:20:14;101649.44;;;12.71;83.38
61394;BME280;48555;50.952;-0.120;2023-11-21T11:22:55;101660.91;;;12.83;83.16
61394;BME280;48555;50.952;-0.120;2023-11-21T11:34:56;101669.69;;;12.42;84.87
61394;BME280;48555;50.952;-0.120;2023-11-21T11:37:25;101668.47;;;12.47;84.90
61394;BME280;48555;50.952;-0.120;2023-11-21T11:39:50;101671.53;;;12.27;85.75
61394;BME280;48555;50.952;-0.120;2023-11-21T11:42:17;101675.22;;;12.10;86.22
61394;BME280;48555;50.952;-0.120;2023-11-21T11:49:58;101679.22;;;12.16;86.82
61394;BME280;48555;50.952;-0.120;2023-11-21T11:52:45;101665.41;;;11.85;89.31
61394;BME280;48555;50.952;-0.120;2023-11-21T11:55:12;101671.84;;;12.08;88.88
61394;BME280;48555;50.952;-0.120;2023-11-21T11:57:48;101677.59;;;11.86;89.03
61394;BME280;48555;50.952;-0.120;2023-11-21T12:00:18;101678.88;;;11.93;89.45
61394;BME280;48555;50.952;-0.120;2023-11-21T12:02:50;101679.63;;;12.10;89.04
61394;BME280;48555;50.952;-0.120;2023-11-21T12:05:18;101686.22;;;12.30;88.18
61394;BME280;48555;50.952;-0.120;2023-11-21T12:07:54;101685.47;;;12.27;88.47
61394;BME280;48555;50.952;-0.120;2023-11-21T12:10:24;101685.63;;;11.97;89.82
61394;BME280;48555;50.952;-0.120;2023-11-21T12:12:52;101686.84;;;12.06;89.71
61394;BME280;48555;50.952;-0.120;2023-11-21T12:15:18;101690.69;;;11.86;90.28
61394;BME280;48555;50.952;-0.120;2023-11-21T12:17:44;101687.13;;;11.87;91.37
61394;BME280;48555;50.952;-0.120;2023-11-21T12:20:11;101688.28;;;12.24;89.85
61394;BME280;48555;50.952;-0.120;2023-11-21T12:22:44;101692.94;;;12.34;89.31
61394;BME280;48555;50.952;-0.120;2023-11-21T12:25:10;101693.63;;;12.23;89.83
61394;BME280;48555;50.952;-0.120;2023-11-21T12:27:38;101688.66;;;12.33;89.57
61394;BME280;48555;50.952;-0.120;2023-11-21T12:30:03;101697.19;;;12.49;88.95
61394;BME280;48555;50.952;-0.120;2023-11-21T12:32:29;101697.94;;;12.51;88.45
61394;BME280;48555;50.952;-0.120;2023-11-21T12:34:55;101724.63;;;12.58;88.81
61394;BME280;48555;50.952;-0.120;2023-11-21T12:37:20;101729.91;;;12.70;88.57
61394;BME280;48555;50.952;-0.120;2023-11-21T12:39:46;101737.66;;;12.18;90.57
61394;BME280;48555;50.952;-0.120;2023-11-21T12:42:11;101731.34;;;12.35;90.36
61394;BME280;48555;50.952;-0.120;2023-11-21T12:44:36;101744.13;;;12.54;90.10
61394;BME280;48555;50.952;-0.120;2023-11-21T12:47:06;101749.34;;;12.68;89.16
61394;BME280;48555;50.952;-0.120;2023-11-21T12:49:31;101759.28;;;12.21;91.06
61394;BME280;48555;50.952;-0.120;2023-11-21T12:51:59;101769.75;;;12.50;90.65